Flight Track Log - Related Links

Times and Time Zones

All times are in EDT time to prevent confusion due to time zone crossing. See the SWA491 flight status page for this flight to view local times or setup timezone preferences in your user account.

Time Position Orientation Groundspeed Altitude Reporting Facility
EDT Latitude Longitude Course Direction KTS MPH feet Rate Location/Type
Sun 04:20:34 PM 39.1667 -76.7500 143° Southeast 205 236 2,800  Level Potomac TRACON
Sun 04:22:14 PM 39.1083 -76.6936 143° Southeast 230 265 6,800 2,700 Climbing Washington Center
Sun 04:23:14 PM 39.1156 -76.5867 85° East 230 265 10,000 2,695 Climbing Washington Center
Sun 04:24:12 PM 39.1267 -76.4906 81° East 283 326 12,100 2,695 Climbing Washington Center
Sun 04:25:12 PM 39.1403 -76.3356 83° East 302 348 15,300 2,607 Climbing Washington Center
Sun 04:26:14 PM 39.1514 -76.2153 83° East 367 422 17,400 2,600 Climbing Washington Center
Sun 04:27:12 PM 39.1753 -76.0306 80° East 414 476 20,500 3,227 Climbing Washington Center
Sun 04:28:13 PM 39.2006 -75.8700 78° East 440 506 23,800 2,678 Climbing Washington Center
Sun 04:29:13 PM 39.2864 -75.7631 44° Northeast 415 478 25,900 2,200 Climbing Washington Center
Sun 04:30:13 PM 39.3719 -75.6506 45° Northeast 422 486 28,200 1,934 Climbing Washington Center
Sun 04:31:14 PM 39.4614 -75.5350 45° Northeast 434 499 29,800 1,513 Climbing Washington Center
Sun 04:32:12 PM 39.5550 -75.4111 46° Northeast 456 525 31,200 1,525 Climbing Washington Center
Sun 04:33:12 PM 39.6486 -75.2869 46° Northeast 468 539 32,800 1,600 Climbing Washington Center
Sun 04:34:12 PM 39.7439 -75.1544 47° Northeast 481 554 34,400 1,756 Climbing Washington Center
Sun 04:35:15 PM 39.8269 -75.0378 47° Northeast 496 571 36,400 765 Climbing Washington Center
Sun 04:37:36 PM 40.0442 -74.7214 48° Northeast 496 571 37,000 177 Climbing New York Center
Sun 04:38:38 PM 40.1381 -74.5886 47° Northeast 496 571 37,000  Level New York Center
Sun 04:39:40 PM 40.2256 -74.4475 51° Northeast 520 598 37,000  Level New York Center
Sun 04:40:42 PM 40.2994 -74.2439 65° Northeast 515 593 37,000  Level New York Center
Sun 04:41:44 PM 40.4142 -74.1903 20° North 431 496 37,000  Level New York Center
Sun 04:42:47 PM 40.5311 -74.1711 North 427 491 37,000  Level New York Center
Sun 04:43:49 PM 40.6489 -74.1519 North 426 490 37,000  Level New York Center
Sun 04:44:51 PM 40.7889 -74.1294 North 426 490 37,000  Level New York Center
Sun 04:45:53 PM 40.9003 -74.1119 North 420 483 37,000  Level New York Center
Sun 04:46:55 PM 41.0161 -74.0833 11° North 428 493 37,000  Level New York Center
Sun 04:47:57 PM 41.1308 -74.0081 26° Northeast 461 531 37,000  Level New York Center
Sun 04:49:00 PM 41.2439 -73.9436 23° Northeast 445 512 37,000  Level New York Center
Sun 04:51:04 PM 41.4914 -73.9142 North 403 464 37,000  Level New York Center
Sun 04:52:06 PM 41.5986 -73.9053 North 408 470 37,000  Level New York Center
Sun 04:53:02 PM 41.6972 -73.8969 North 407 468 37,000 -347 Level Boston Center
Sun 04:54:07 PM 41.8297 -73.8828 North 415 478 36,300 -810 Descending Boston Center
Sun 04:55:08 PM 41.9408 -73.8733 North 402 463 35,300 -934 Descending Boston Center
Sun 04:56:09 PM 42.0350 -73.7653 40° Northeast 456 525 34,400 -1,180 Descending Boston Center
Sun 04:57:10 PM 42.1175 -73.6083 55° Northeast 484 557 32,900 -2,164 Descending Boston Center
Sun 04:58:11 PM 42.1933 -73.4642 55° Northeast 474 545 30,000 -2,705 Descending Boston Center
Sun 04:59:12 PM 42.2628 -73.3306 55° Northeast 472 543 27,400 -2,640 Descending Boston Center
Sun 05:00:16 PM 42.3642 -73.1836 47° Northeast 446 513 24,500 -1,790 Descending Boston Center
Sun 05:01:16 PM 42.4494 -73.0775 43° Northeast 419 482 23,700 -992 Descending Boston Center
Sun 05:02:17 PM 42.5106 -72.9467 58° Northeast 391 450 22,500 -1,230 Descending Boston Center
Sun 05:03:18 PM 42.5658 -72.8200 59° Northeast 388 447 21,200 -1,475 Descending Boston Center
Sun 05:04:19 PM 42.6183 -72.6992 59° Northeast 375 432 19,500 -1,694 Descending Boston Center
Sun 05:05:22 PM 42.6703 -72.5806 59° Northeast 361 415 17,700 -1,694 Descending Boston Center
Sun 05:06:23 PM 42.7167 -72.4656 61° Northeast 349 402 16,000 -1,736 Descending Boston Center
Sun 05:07:23 PM 42.7408 -72.3361 76° East 352 405 14,200 -1,742 Descending Boston Center
Sun 05:08:27 PM 42.7678 -72.2008 75° East 341 392 12,400 -1,694 Descending Boston Center
Sun 05:09:27 PM 42.7917 -72.0839 74° East 326 375 10,700 -1,438 Descending Boston Center
Sun 05:10:28 PM 42.8150 -71.9622 75° East 311 358 9,500 -1,122 Descending Boston Center
Sun 05:11:30 PM 42.7956 -71.8528 104° East 311 358 8,400 -1,073 Descending Boston Center
Sun 05:12:31 PM 42.7764 -71.7444 104° East 301 346 7,300 -1,200 Descending Boston Center
Sun 05:13:35 PM 42.7650 -71.6289 98° East 290 334 5,900 -1,597 Descending Boston Center
Sun 05:14:35 PM 42.7811 -71.5267 78° East 279 321 4,000 -1,339 Descending Boston Center
Sun 05:15:36 PM 42.8000 -71.4272 75° East 251 289 3,200 -726 Descending Boston Center
Sun 05:16:39 PM 42.8189 -71.3664 67° East 179 206 2,500 -677 Descending Boston Center
Sun 05:17:40 PM 42.8514 -71.3864 336° Northwest 131 151 1,800 -738 Descending Boston Center
Sun 05:18:41 PM 42.8853 -71.4050 338° Northwest 131 151 1,000 -744 Descending Boston Center
Sun 05:19:41 PM 42.9178 -71.4242 337° Northwest 131 151 300 -700 Descending Boston Center
Sun 05:21:00 PM 42.9167 -71.4333 316° Northwest  Level FlightAware Approximate
Sun 05:28:00 PM 42.9328 -71.4358 316° Northwest  Level Estimated

Login

Don't have an account? Register now (free) for customized features, flight alerts, and more!